createdAt,value
2017-05-24T00:01:02.056Z,1011.21
2017-05-24T00:02:14.574Z,1011.3
2017-05-24T00:03:26.506Z,1011.19
2017-05-24T00:04:38.734Z,1011.23
2017-05-24T00:05:50.685Z,1011.24
2017-05-24T00:07:02.918Z,1011.32
2017-05-24T00:08:14.823Z,1011.31
2017-05-24T00:09:27.068Z,1011.35
2017-05-24T00:10:38.994Z,1011.36
2017-05-24T00:11:51.530Z,1011.37
2017-05-24T00:13:03.759Z,1011.37
2017-05-24T00:14:16.276Z,1011.37
2017-05-24T00:15:27.899Z,1011.33
2017-05-24T00:16:40.399Z,1011.28
2017-05-24T00:17:52.645Z,1011.31
2017-05-24T00:19:05.161Z,1011.33
2017-05-24T00:20:17.409Z,1011.39
2017-05-24T00:21:29.933Z,1011.42
2017-05-24T00:22:42.474Z,1011.38
2017-05-24T00:23:54.702Z,1011.35
2017-05-24T00:25:06.969Z,1011.31
2017-05-24T00:26:19.507Z,1011.39
2017-05-24T00:27:31.765Z,1011.38
2017-05-24T00:28:44.304Z,1011.38
2017-05-24T00:29:56.515Z,1011.32
2017-05-24T00:31:08.444Z,1011.35
2017-05-24T00:32:20.619Z,1011.37
2017-05-24T00:33:33.161Z,1011.36
2017-05-24T00:34:45.686Z,1011.37
2017-05-24T00:35:57.949Z,1011.35
2017-05-24T00:37:10.179Z,1011.37
2017-05-24T00:38:22.397Z,1011.34
2017-05-24T00:39:34.046Z,1011.32
2017-05-24T00:40:46.562Z,1011.35
2017-05-24T00:41:59.106Z,1011.34
2017-05-24T00:43:11.632Z,1011.33
2017-05-24T00:44:23.844Z,1011.29
2017-05-24T00:45:35.772Z,1011.26
2017-05-24T00:46:48.295Z,1011.28
2017-05-24T00:48:00.537Z,1011.26
2017-05-24T00:49:12.454Z,1011.26
2017-05-24T00:50:24.987Z,1011.27
2017-05-24T00:51:36.904Z,1011.25
2017-05-24T00:52:49.422Z,1011.27
2017-05-24T00:54:01.972Z,1011.19
2017-05-24T00:55:14.215Z,1011.24
2017-05-24T00:56:25.867Z,1011.25
2017-05-24T00:57:38.408Z,1011.27
2017-05-24T00:58:50.681Z,1011.25
2017-05-24T01:00:03.223Z,1011.26
2017-05-24T01:01:15.444Z,1011.28
2017-05-24T01:02:27.392Z,1011.3
2017-05-24T01:03:39.934Z,1011.33
2017-05-24T01:04:52.184Z,1011.35
2017-05-24T01:06:04.402Z,1011.33
2017-05-24T01:07:16.600Z,1011.31
2017-05-24T01:08:28.518Z,1011.32
2017-05-24T01:09:41.073Z,1011.34
2017-05-24T01:10:53.317Z,1011.31
2017-05-24T01:12:04.955Z,1011.36
2017-05-24T01:13:16.885Z,1011.37
2017-05-24T01:14:29.402Z,1011.39
2017-05-24T01:15:41.940Z,1011.41
2017-05-24T01:16:53.882Z,1011.5
2017-05-24T01:18:06.427Z,1011.42
2017-05-24T01:19:18.659Z,1011.42
2017-05-24T01:20:31.207Z,1011.4
2017-05-24T01:21:43.468Z,1011.45
2017-05-24T01:22:55.396Z,1011.48
2017-05-24T01:24:07.646Z,1011.47
2017-05-24T01:25:19.892Z,1011.47
2017-05-24T01:26:32.152Z,1011.44
2017-05-24T01:27:44.403Z,1011.49
2017-05-24T01:28:56.652Z,1011.44
2017-05-24T01:30:08.599Z,1011.43
2017-05-24T01:31:21.144Z,1011.47
2017-05-24T01:32:33.079Z,1011.45
2017-05-24T01:33:44.983Z,1011.45
2017-05-24T01:34:57.208Z,1011.48
2017-05-24T01:36:09.449Z,1011.47
2017-05-24T01:37:21.699Z,1011.46
2017-05-24T01:38:33.937Z,1011.44
2017-05-24T01:39:46.469Z,1011.43
2017-05-24T01:40:59.003Z,1011.48
2017-05-24T01:42:11.257Z,1011.51
2017-05-24T01:43:23.476Z,1011.47
2017-05-24T01:44:35.402Z,1011.5
2017-05-24T01:45:47.320Z,1011.5
2017-05-24T01:46:59.214Z,1011.57
2017-05-24T01:48:11.426Z,1011.54
2017-05-24T01:49:23.675Z,1011.57
2017-05-24T01:50:36.230Z,1011.59
2017-05-24T01:51:48.475Z,1011.65
2017-05-24T01:53:01.025Z,1011.6
2017-05-24T01:54:13.563Z,1011.62
2017-05-24T01:55:25.802Z,1011.6
2017-05-24T01:56:38.005Z,1011.66
2017-05-24T01:57:50.206Z,1011.65
2017-05-24T01:59:03.030Z,1011.65
2017-05-24T02:00:15.548Z,1011.67
2017-05-24T02:01:28.080Z,1011.68
2017-05-24T02:02:40.284Z,1011.67
2017-05-24T02:03:52.506Z,1011.67
2017-05-24T02:05:05.028Z,1011.72
2017-05-24T02:06:17.251Z,1011.64
2017-05-24T02:07:29.492Z,1011.69
2017-05-24T02:08:41.738Z,1011.68
2017-05-24T02:09:53.606Z,1011.75
2017-05-24T02:11:06.157Z,1011.74
2017-05-24T02:12:18.352Z,1011.7
2017-05-24T02:13:30.903Z,1011.7
2017-05-24T02:14:43.149Z,1011.74
2017-05-24T02:15:55.716Z,1011.74
2017-05-24T02:17:07.640Z,1011.77
2017-05-24T02:18:20.149Z,1011.78
2017-05-24T02:19:32.379Z,1011.76
2017-05-24T02:20:45.140Z,1011.8
2017-05-24T02:21:57.644Z,1011.76
2017-05-24T02:23:10.187Z,1011.81
2017-05-24T02:24:22.434Z,1011.84
2017-05-24T02:25:35.004Z,1011.78
2017-05-24T02:26:47.230Z,1011.8
2017-05-24T02:27:59.778Z,1011.78
2017-05-24T02:29:12.013Z,1011.79
2017-05-24T02:30:24.541Z,1011.77
2017-05-24T02:31:36.465Z,1011.8
2017-05-24T02:32:48.703Z,1011.81
2017-05-24T02:34:00.958Z,1011.84
2017-05-24T02:35:13.202Z,1011.79
2017-05-24T02:36:25.749Z,1011.78
2017-05-24T02:37:38.286Z,1011.78
2017-05-24T02:38:50.217Z,1011.83
2017-05-24T02:40:02.458Z,1011.83
2017-05-24T02:41:14.678Z,1011.79
2017-05-24T02:42:27.199Z,1011.8
2017-05-24T02:43:39.142Z,1011.82
2017-05-24T02:44:51.069Z,1011.8
2017-05-24T02:46:03.018Z,1011.85
2017-05-24T02:47:15.562Z,1011.79
2017-05-24T02:48:28.135Z,1011.8
2017-05-24T02:49:40.393Z,1011.81
2017-05-24T02:50:52.597Z,1011.83
2017-05-24T02:52:04.214Z,1011.85
2017-05-24T02:53:17.023Z,1011.78
2017-05-24T02:54:29.512Z,1011.84
2017-05-24T02:55:41.211Z,1011.8
2017-05-24T02:56:53.752Z,1011.84
2017-05-24T02:58:06.288Z,1011.88
2017-05-24T02:59:18.521Z,1011.84
2017-05-24T03:00:30.738Z,1011.87
2017-05-24T03:01:42.934Z,1011.9
2017-05-24T03:02:55.137Z,1011.85
2017-05-24T03:04:07.979Z,1011.85
2017-05-24T03:05:19.923Z,1011.86
2017-05-24T03:06:31.845Z,1011.91
2017-05-24T03:07:44.040Z,1011.86
2017-05-24T03:08:55.990Z,1011.91
2017-05-24T03:10:08.208Z,1011.91
2017-05-24T03:11:20.429Z,1011.95
2017-05-24T03:12:32.949Z,1011.9
2017-05-24T03:13:45.469Z,1011.97
2017-05-24T03:14:58.007Z,1011.95
2017-05-24T03:16:09.936Z,1011.92
2017-05-24T03:17:22.486Z,1011.96
2017-05-24T03:18:35.060Z,1011.95
2017-05-24T03:19:47.299Z,1011.93
2017-05-24T03:20:59.847Z,1011.96
2017-05-24T03:22:12.090Z,1011.95
2017-05-24T03:23:24.040Z,1011.99
2017-05-24T03:24:36.558Z,1011.95
2017-05-24T03:25:48.781Z,1011.92
2017-05-24T03:27:01.301Z,1011.96
2017-05-24T03:28:13.226Z,1011.93
2017-05-24T03:29:25.744Z,1011.99
2017-05-24T03:30:37.691Z,1011.98
2017-05-24T03:31:50.237Z,1011.95
2017-05-24T03:33:02.789Z,1011.94
2017-05-24T03:34:15.028Z,1011.93
2017-05-24T03:35:27.579Z,1011.94
2017-05-24T03:36:40.116Z,1011.96
2017-05-24T03:37:52.363Z,1011.97
2017-05-24T03:39:04.910Z,1011.98
2017-05-24T03:40:17.150Z,1011.99
2017-05-24T03:41:29.405Z,1011.95
2017-05-24T03:42:41.948Z,1011.99
2017-05-24T03:43:54.491Z,1012.06
2017-05-24T03:45:07.040Z,1011.98
2017-05-24T03:46:19.279Z,1012.01
2017-05-24T03:47:31.483Z,1012.03
2017-05-24T03:48:43.426Z,1012.09
2017-05-24T03:49:55.366Z,1012.08
2017-05-24T03:51:07.594Z,1012.07
2017-05-24T03:52:20.116Z,1012.09
2017-05-24T03:53:32.664Z,1012.03
2017-05-24T03:54:44.929Z,1012.07
2017-05-24T03:55:57.456Z,1012.03
2017-05-24T03:57:09.700Z,1012.02
2017-05-24T03:58:22.246Z,1012.07
2017-05-24T03:59:34.739Z,1012
2017-05-24T04:00:46.984Z,1012.06
2017-05-24T04:01:58.922Z,1012.1
2017-05-24T04:03:11.156Z,1012.09
2017-05-24T04:04:23.678Z,1012.14
2017-05-24T04:05:35.896Z,1012.1
2017-05-24T04:06:48.134Z,1012.15
2017-05-24T04:08:00.689Z,1012.22
2017-05-24T04:09:13.231Z,1012.16
2017-05-24T04:10:25.780Z,1012.26
2017-05-24T04:11:37.725Z,1012.15
2017-05-24T04:12:49.969Z,1012.17
2017-05-24T04:14:02.523Z,1012.14
2017-05-24T04:15:14.756Z,1012.23
2017-05-24T04:16:27.284Z,1012.21
2017-05-24T04:17:39.548Z,1012.25
2017-05-24T04:18:51.805Z,1012.24
2017-05-24T04:20:04.324Z,1012.34
2017-05-24T04:21:16.896Z,1012.3
2017-05-24T04:22:29.456Z,1012.29
2017-05-24T04:23:41.362Z,1012.23
2017-05-24T04:24:53.882Z,1012.27
2017-05-24T04:26:05.826Z,1012.2
2017-05-24T04:27:18.073Z,1012.24
2017-05-24T04:28:30.315Z,1012.27
2017-05-24T04:29:42.563Z,1012.24
2017-05-24T04:30:55.104Z,1012.27
2017-05-24T04:32:07.652Z,1012.27
2017-05-24T04:33:19.594Z,1012.24
2017-05-24T04:34:31.849Z,1012.22
2017-05-24T04:35:44.086Z,1012.23
2017-05-24T04:36:56.613Z,1012.27
2017-05-24T04:38:08.855Z,1012.3
2017-05-24T04:39:21.397Z,1012.32
2017-05-24T04:40:33.946Z,1012.29
2017-05-24T04:41:46.764Z,1012.33
2017-05-24T04:42:58.692Z,1012.22
2017-05-24T04:44:11.215Z,1012.33
2017-05-24T04:45:23.487Z,1012.42
2017-05-24T04:46:35.732Z,1012.3
2017-05-24T04:47:47.379Z,1012.38
2017-05-24T04:48:59.922Z,1012.34
2017-05-24T04:50:12.471Z,1012.34
2017-05-24T04:51:24.370Z,1012.38
2017-05-24T04:52:36.602Z,1012.3
2017-05-24T04:53:48.805Z,1012.36
2017-05-24T04:55:01.026Z,1012.36
2017-05-24T04:56:13.575Z,1012.32
2017-05-24T04:57:26.148Z,1012.29
2017-05-24T04:58:38.688Z,1012.32
2017-05-24T04:59:50.937Z,1012.36
2017-05-24T05:01:03.176Z,1012.3
2017-05-24T05:02:15.402Z,1012.37
2017-05-24T05:03:27.928Z,1012.42
2017-05-24T05:04:40.148Z,1012.31
2017-05-24T05:05:52.089Z,1012.47
2017-05-24T05:07:04.332Z,1012.4
2017-05-24T05:08:16.860Z,1012.43
2017-05-24T05:09:29.076Z,1012.45
2017-05-24T05:10:41.016Z,1012.48
2017-05-24T05:11:53.546Z,1012.46
2017-05-24T05:13:06.068Z,1012.49
2017-05-24T05:14:18.311Z,1012.5
2017-05-24T05:15:30.848Z,1012.52
2017-05-24T05:16:42.781Z,1012.52
2017-05-24T05:17:55.323Z,1012.57
2017-05-24T05:19:07.853Z,1012.51
2017-05-24T05:20:20.093Z,1012.59
2017-05-24T05:21:32.341Z,1012.58
2017-05-24T05:22:44.578Z,1012.51
2017-05-24T05:23:57.107Z,1012.52
2017-05-24T05:25:09.321Z,1012.55
2017-05-24T05:26:21.820Z,1012.67
2017-05-24T05:27:34.044Z,1012.65
2017-05-24T05:28:46.313Z,1012.67
2017-05-24T05:29:58.540Z,1012.66
2017-05-24T05:31:11.082Z,1012.63
2017-05-24T05:32:22.716Z,1012.68
2017-05-24T05:33:35.242Z,1012.62
2017-05-24T05:34:47.441Z,1012.63
2017-05-24T05:35:59.966Z,1012.66
2017-05-24T05:37:12.210Z,1012.64
2017-05-24T05:38:24.404Z,1012.63
2017-05-24T05:39:36.630Z,1012.61
2017-05-24T05:40:49.199Z,1012.7
2017-05-24T05:42:01.737Z,1012.67
2017-05-24T05:43:14.289Z,1012.67
2017-05-24T05:44:26.513Z,1012.68
2017-05-24T05:45:38.754Z,1012.7
2017-05-24T05:46:51.304Z,1012.76
2017-05-24T05:48:03.846Z,1012.74
2017-05-24T05:49:16.071Z,1012.78
2017-05-24T05:50:28.588Z,1012.73
2017-05-24T05:51:40.512Z,1012.76
2017-05-24T05:52:52.759Z,1012.82
2017-05-24T05:54:05.305Z,1012.81
2017-05-24T05:55:17.548Z,1012.84
2017-05-24T05:56:29.463Z,1012.82
2017-05-24T05:57:41.719Z,1012.8
2017-05-24T05:58:53.936Z,1012.85
2017-05-24T06:00:06.451Z,1012.84
2017-05-24T06:01:18.979Z,1012.85
2017-05-24T06:02:31.531Z,1012.88
2017-05-24T06:03:44.040Z,1012.88
2017-05-24T06:04:56.289Z,1012.85
2017-05-24T06:06:08.865Z,1012.84
2017-05-24T06:07:21.434Z,1012.91
2017-05-24T06:08:33.677Z,1012.89
2017-05-24T06:09:45.643Z,1012.99
2017-05-24T06:10:58.197Z,1012.96
2017-05-24T06:12:10.485Z,1012.96
2017-05-24T06:13:22.715Z,1012.99
2017-05-24T06:14:35.259Z,1013
2017-05-24T06:15:47.484Z,1013.08
2017-05-24T06:16:59.422Z,1013.11
2017-05-24T06:18:11.669Z,1013.13
2017-05-24T06:19:24.196Z,1013.14
2017-05-24T06:20:36.486Z,1013.2
2017-05-24T06:21:49.014Z,1013.13
2017-05-24T06:23:01.270Z,1013.12
2017-05-24T06:24:13.802Z,1013.14
2017-05-24T06:25:26.347Z,1013.18
2017-05-24T06:26:38.590Z,1013.17
2017-05-24T06:27:51.137Z,1013.13
2017-05-24T06:29:03.375Z,1013.13
2017-05-24T06:30:15.904Z,1013.11
2017-05-24T06:31:28.452Z,1013.17
2017-05-24T06:32:40.694Z,1013.2
2017-05-24T06:33:52.942Z,1013.21
2017-05-24T06:35:05.469Z,1013.22
2017-05-24T06:36:17.704Z,1013.19
2017-05-24T06:37:29.951Z,1013.22
2017-05-24T06:38:42.452Z,1013.17
2017-05-24T06:39:54.700Z,1013.26
2017-05-24T06:41:07.166Z,1013.23
2017-05-24T06:42:19.168Z,1013.21
2017-05-24T06:43:31.757Z,1013.26
2017-05-24T06:44:44.001Z,1013.29
2017-05-24T06:45:56.248Z,1013.27
2017-05-24T06:47:08.792Z,1013.26
2017-05-24T06:48:21.342Z,1013.28
2017-05-24T06:49:33.867Z,1013.29
2017-05-24T06:50:46.111Z,1013.31
2017-05-24T06:51:58.332Z,1013.36
2017-05-24T06:53:10.580Z,1013.36
2017-05-24T06:54:23.121Z,1013.4
2017-05-24T06:55:35.343Z,1013.43
2017-05-24T06:56:47.841Z,1013.44
2017-05-24T06:58:00.384Z,1013.46
2017-05-24T06:59:12.911Z,1013.43
2017-05-24T07:00:25.477Z,1013.43
2017-05-24T07:01:38.018Z,1013.39
2017-05-24T07:02:50.242Z,1013.37
2017-05-24T07:04:02.188Z,1013.4
2017-05-24T07:05:14.714Z,1013.46
2017-05-24T07:06:26.634Z,1013.47
2017-05-24T07:07:38.553Z,1013.47
2017-05-24T07:08:50.477Z,1013.51
2017-05-24T07:10:03.039Z,1013.55
2017-05-24T07:11:15.560Z,1013.48
2017-05-24T07:12:28.111Z,1013.43
2017-05-24T07:13:40.335Z,1013.46
2017-05-24T07:14:52.874Z,1013.41
2017-05-24T07:16:05.129Z,1013.42
2017-05-24T07:17:17.447Z,1013.47
2017-05-24T07:18:29.672Z,1013.51
2017-05-24T07:19:42.219Z,1013.48
2017-05-24T07:20:54.449Z,1013.49
2017-05-24T07:22:06.660Z,1013.56
2017-05-24T07:23:19.209Z,1013.52
2017-05-24T07:24:31.437Z,1013.46
2017-05-24T07:25:43.945Z,1013.43
2017-05-24T07:26:56.490Z,1013.44
2017-05-24T07:28:08.712Z,1013.54
2017-05-24T07:29:20.959Z,1013.52
2017-05-24T07:30:33.219Z,1013.52
2017-05-24T07:31:45.779Z,1013.58
2017-05-24T07:32:58.295Z,1013.48
2017-05-24T07:34:10.539Z,1013.46
2017-05-24T07:35:22.776Z,1013.48
2017-05-24T07:36:35.332Z,1013.6
2017-05-24T07:37:47.875Z,1013.59
2017-05-24T07:39:00.441Z,1013.53
2017-05-24T07:40:12.370Z,1013.49
2017-05-24T07:41:24.641Z,1013.51
2017-05-24T07:42:37.163Z,1013.46
2017-05-24T07:43:49.750Z,1013.46
2017-05-24T07:45:01.405Z,1013.42
2017-05-24T07:46:13.642Z,1013.43
2017-05-24T07:47:26.168Z,1013.46
2017-05-24T07:48:38.731Z,1013.46
2017-05-24T07:49:51.279Z,1013.46
2017-05-24T07:51:02.928Z,1013.5
2017-05-24T07:52:14.896Z,1013.42
2017-05-24T07:53:27.496Z,1013.44
2017-05-24T07:54:39.761Z,1013.47
2017-05-24T07:55:51.996Z,1013.44
2017-05-24T07:57:03.609Z,1013.45
2017-05-24T07:58:15.555Z,1013.52
2017-05-24T07:59:27.482Z,1013.51
2017-05-24T08:00:39.700Z,1013.48
2017-05-24T08:01:51.648Z,1013.49
2017-05-24T08:03:03.266Z,1013.56
2017-05-24T08:04:15.842Z,1013.52
2017-05-24T08:05:28.399Z,1013.57
2017-05-24T08:06:40.633Z,1013.59
2017-05-24T08:07:52.847Z,1013.66
2017-05-24T08:09:04.793Z,1013.64
2017-05-24T08:10:17.420Z,1013.68
2017-05-24T08:11:29.688Z,1013.73
2017-05-24T08:12:42.248Z,1013.74
2017-05-24T08:13:54.477Z,1013.7
2017-05-24T08:15:06.406Z,1013.75
2017-05-24T08:16:18.669Z,1013.75
2017-05-24T08:17:30.918Z,1013.82
2017-05-24T08:18:43.766Z,1013.79
2017-05-24T08:19:55.423Z,1013.86
2017-05-24T08:21:07.048Z,1013.85
2017-05-24T08:22:19.603Z,1013.86
2017-05-24T08:23:31.873Z,1013.73
2017-05-24T08:24:44.115Z,1013.87
2017-05-24T08:25:56.361Z,1013.89
2017-05-24T08:27:08.289Z,1013.96
2017-05-24T08:28:20.512Z,1014
2017-05-24T08:29:32.753Z,1013.99
2017-05-24T08:30:44.692Z,1014.05
2017-05-24T08:31:56.617Z,1014.07
2017-05-24T08:33:09.142Z,1014.03
2017-05-24T08:34:21.658Z,1013.98
2017-05-24T08:35:34.181Z,1014.02
2017-05-24T08:36:46.425Z,1014.15
2017-05-24T08:37:58.971Z,1014.03
2017-05-24T08:39:11.210Z,1014.1
2017-05-24T08:40:23.737Z,1014.15
2017-05-24T08:41:35.980Z,1014.12
2017-05-24T08:42:48.207Z,1014.06
2017-05-24T08:43:59.853Z,1014.01
2017-05-24T08:45:11.806Z,1014.03
2017-05-24T08:46:24.351Z,1014.1
2017-05-24T08:47:36.591Z,1014.07
2017-05-24T08:48:48.864Z,1014.05
2017-05-24T08:50:00.809Z,1014.05
2017-05-24T08:51:13.357Z,1013.99
2017-05-24T08:52:25.872Z,1014.04
2017-05-24T08:53:38.410Z,1013.99
2017-05-24T08:54:50.916Z,1014.01
2017-05-24T08:56:02.562Z,1014.12
2017-05-24T08:57:14.789Z,1014.09
2017-05-24T08:58:26.997Z,1014.26
2017-05-24T08:59:39.252Z,1014.21
2017-05-24T09:00:51.772Z,1014.27
2017-05-24T09:02:03.707Z,1014.2
2017-05-24T09:03:16.228Z,1014.22
2017-05-24T09:04:28.756Z,1014.28
2017-05-24T09:05:41.295Z,1014.23
2017-05-24T09:06:53.853Z,1014.27
2017-05-24T09:08:05.493Z,1014.17
2017-05-24T09:09:17.410Z,1014.09
2017-05-24T09:10:29.637Z,1014.15
2017-05-24T09:11:42.205Z,1014.21
2017-05-24T09:12:54.755Z,1014.19
2017-05-24T09:14:07.003Z,1014.1
2017-05-24T09:15:19.548Z,1014.01
2017-05-24T09:16:32.105Z,1013.94
2017-05-24T09:17:44.636Z,1014.12
2017-05-24T09:18:57.183Z,1014.06
2017-05-24T09:20:09.702Z,1014.09
2017-05-24T09:21:21.952Z,1014.13
2017-05-24T09:22:34.470Z,1014.12
2017-05-24T09:23:47.032Z,1014.09
2017-05-24T09:24:59.256Z,1014.02
2017-05-24T09:26:11.211Z,1014.03
2017-05-24T09:27:23.153Z,1014.13
2017-05-24T09:28:35.376Z,1014.2
2017-05-24T09:29:47.623Z,1014.19
2017-05-24T09:30:59.869Z,1014.22
2017-05-24T09:32:12.109Z,1014.21
2017-05-24T09:33:24.333Z,1014.23
2017-05-24T09:34:36.578Z,1014.17
2017-05-24T09:35:49.146Z,1014.25
2017-05-24T09:37:01.691Z,1014.34
2017-05-24T09:38:14.237Z,1014.46
2017-05-24T09:39:26.192Z,1014.26
2017-05-24T09:40:37.887Z,1014.13
2017-05-24T09:41:50.139Z,1014.06
2017-05-24T09:43:02.679Z,1014.2
2017-05-24T09:44:15.239Z,1014.23
2017-05-24T09:45:27.761Z,1014.3
2017-05-24T09:46:39.962Z,1014.22
2017-05-24T09:47:52.180Z,1014.13
2017-05-24T09:49:04.104Z,1014.14
2017-05-24T09:50:16.343Z,1014.15
2017-05-24T09:51:28.877Z,1014.28
2017-05-24T09:52:41.122Z,1014.27
2017-05-24T09:53:53.418Z,1014.22
2017-05-24T09:55:05.659Z,1014.13
2017-05-24T09:56:18.208Z,1014.21
2017-05-24T09:57:30.434Z,1014.06
2017-05-24T09:58:42.978Z,1014.04
2017-05-24T09:59:55.235Z,1014.14
2017-05-24T10:01:07.489Z,1014.27
2017-05-24T10:02:20.042Z,1014.06
2017-05-24T10:03:32.580Z,1014.03
2017-05-24T10:04:44.851Z,1014.01
2017-05-24T10:05:57.101Z,1014.01
2017-05-24T10:07:09.339Z,1014
2017-05-24T10:08:21.589Z,1014.31
2017-05-24T10:09:34.236Z,1014.33
2017-05-24T10:10:46.181Z,1014.16
2017-05-24T10:11:58.405Z,1014.22
2017-05-24T10:13:10.327Z,1014.25
2017-05-24T10:14:22.870Z,1014.15
2017-05-24T10:15:35.415Z,1014.19
2017-05-24T10:16:47.956Z,1014.2
2017-05-24T10:18:00.528Z,1014.21
2017-05-24T10:19:12.524Z,1014.2
2017-05-24T10:20:25.070Z,1014.24
2017-05-24T10:21:37.599Z,1014.25
2017-05-24T10:22:49.856Z,1014.39
2017-05-24T10:24:02.071Z,1014.2
2017-05-24T10:25:13.788Z,1014.24
2017-05-24T10:26:26.034Z,1014.25
2017-05-24T10:27:38.570Z,1014.26
2017-05-24T10:28:51.095Z,1014.18
2017-05-24T10:30:03.066Z,1014.24
2017-05-24T10:31:15.282Z,1014.22
2017-05-24T10:32:27.811Z,1014.19
2017-05-24T10:33:40.003Z,1014.22
2017-05-24T10:34:52.283Z,1014.2
2017-05-24T10:36:04.820Z,1014.28
2017-05-24T10:37:17.072Z,1014.31
2017-05-24T10:38:29.616Z,1014.19
2017-05-24T10:39:41.533Z,1014.21
2017-05-24T10:40:53.804Z,1014.27
2017-05-24T10:42:06.303Z,1014.23
2017-05-24T10:43:18.538Z,1014.26
2017-05-24T10:44:31.068Z,1014.44
2017-05-24T10:45:43.312Z,1014.35
2017-05-24T10:46:55.579Z,1014.35
2017-05-24T10:48:07.813Z,1014.38
2017-05-24T10:49:20.354Z,1014.44
2017-05-24T10:50:32.624Z,1014.54
2017-05-24T10:51:45.193Z,1014.47
2017-05-24T10:52:57.792Z,1014.35
2017-05-24T10:54:10.334Z,1014.28
2017-05-24T10:55:22.883Z,1014.31
2017-05-24T10:56:35.421Z,1014.25
2017-05-24T10:57:47.044Z,1014.15
2017-05-24T10:58:59.543Z,1014.3
2017-05-24T11:00:12.068Z,1014.37
2017-05-24T11:01:24.639Z,1014.36
2017-05-24T11:02:37.199Z,1014.27
2017-05-24T11:03:49.731Z,1014.17
2017-05-24T11:05:01.974Z,1014.36
2017-05-24T11:06:13.924Z,1014.31
2017-05-24T11:07:26.467Z,1014.17
2017-05-24T11:08:39.041Z,1014.12
2017-05-24T11:09:51.631Z,1014.27
2017-05-24T11:11:03.855Z,1014.16
2017-05-24T11:12:16.119Z,1014.08
2017-05-24T11:13:28.048Z,1014.17
2017-05-24T11:14:40.594Z,1014.28
2017-05-24T11:15:52.863Z,1014.39
2017-05-24T11:17:04.788Z,1014.4
2017-05-24T11:18:17.352Z,1014.38
2017-05-24T11:19:29.319Z,1014.31
2017-05-24T11:20:41.244Z,1014.41
2017-05-24T11:21:53.169Z,1014.38
2017-05-24T11:23:05.132Z,1014.41
2017-05-24T11:24:17.687Z,1014.27
2017-05-24T11:25:30.229Z,1014.29
2017-05-24T11:26:42.166Z,1014.52
2017-05-24T11:27:54.425Z,1014.43
2017-05-24T11:29:06.694Z,1014.45
2017-05-24T11:30:18.630Z,1014.38
2017-05-24T11:31:31.153Z,1014.32
2017-05-24T11:32:43.401Z,1014.3
2017-05-24T11:33:55.978Z,1014.28
2017-05-24T11:35:08.530Z,1014.09
2017-05-24T11:36:21.044Z,1013.97
2017-05-24T11:37:33.308Z,1013.97
2017-05-24T11:38:45.883Z,1014.01
2017-05-24T11:39:58.401Z,1014.18
2017-05-24T11:41:10.050Z,1014.37
2017-05-24T11:42:21.995Z,1014.41
2017-05-24T11:43:34.564Z,1014.32
2017-05-24T11:44:47.110Z,1014.33
2017-05-24T11:45:59.357Z,1014.22
2017-05-24T11:47:11.008Z,1014.16
2017-05-24T11:48:23.255Z,1014.11
2017-05-24T11:49:35.788Z,1014.23
2017-05-24T11:50:48.038Z,1014.12
2017-05-24T11:52:00.293Z,1014.13
2017-05-24T11:53:11.918Z,1014.1
2017-05-24T11:54:24.183Z,1014.19
2017-05-24T11:55:36.428Z,1014.14
2017-05-24T11:56:48.950Z,1014.02
2017-05-24T11:58:01.496Z,1014.08
2017-05-24T11:59:13.760Z,1014.13
2017-05-24T12:00:26.318Z,1014.21
2017-05-24T12:01:38.253Z,1014.01
2017-05-24T12:02:50.859Z,1014.06
2017-05-24T12:04:03.089Z,1014
2017-05-24T12:05:15.021Z,1014.16
2017-05-24T12:06:27.559Z,1014.17
2017-05-24T12:07:39.813Z,1014.09
2017-05-24T12:08:52.358Z,1013.95
2017-05-24T12:10:04.302Z,1013.86
2017-05-24T12:11:16.544Z,1013.98
2017-05-24T12:12:28.771Z,1013.9
2017-05-24T12:13:41.319Z,1013.91
2017-05-24T12:14:52.681Z,1013.95
2017-05-24T12:16:04.937Z,1013.8
2017-05-24T12:17:17.473Z,1013.75
2017-05-24T12:18:29.702Z,1013.74
2017-05-24T12:19:42.264Z,1013.82
2017-05-24T12:20:53.894Z,1014
2017-05-24T12:22:06.387Z,1014.05
2017-05-24T12:23:18.312Z,1014.04
2017-05-24T12:24:30.857Z,1014.01
2017-05-24T12:25:43.399Z,1014.08
2017-05-24T12:26:55.648Z,1014.05
2017-05-24T12:28:07.891Z,1014.12
2017-05-24T12:29:20.111Z,1014.03
2017-05-24T12:30:32.358Z,1013.99
2017-05-24T12:31:44.880Z,1013.89
2017-05-24T12:32:57.122Z,1013.86
2017-05-24T12:34:09.371Z,1013.76
2017-05-24T12:35:21.918Z,1013.67
2017-05-24T12:36:34.479Z,1013.75
2017-05-24T12:37:47.008Z,1013.85
2017-05-24T12:38:59.799Z,1013.8
2017-05-24T12:40:12.029Z,1013.8
2017-05-24T12:41:24.550Z,1013.87
2017-05-24T12:42:37.121Z,1013.93
2017-05-24T12:43:49.741Z,1013.92
2017-05-24T12:45:02.006Z,1013.97
2017-05-24T12:46:13.626Z,1013.92
2017-05-24T12:47:26.177Z,1013.99
2017-05-24T12:48:38.124Z,1013.99
2017-05-24T12:49:50.364Z,1013.98
2017-05-24T12:51:02.914Z,1013.93
2017-05-24T12:52:15.155Z,1013.81
2017-05-24T12:53:27.109Z,1013.75
2017-05-24T12:54:39.379Z,1013.9
2017-05-24T12:55:51.339Z,1013.79
2017-05-24T12:57:03.850Z,1013.78
2017-05-24T12:58:15.810Z,1013.74
2017-05-24T12:59:28.340Z,1013.64
2017-05-24T13:00:41.131Z,1013.61
2017-05-24T13:01:53.380Z,1013.67
2017-05-24T13:03:05.951Z,1013.77
2017-05-24T13:04:18.460Z,1013.88
2017-05-24T13:05:30.995Z,1013.9
2017-05-24T13:06:43.560Z,1013.93
2017-05-24T13:07:55.527Z,1013.95
2017-05-24T13:09:07.802Z,1013.88
2017-05-24T13:10:20.078Z,1013.84
2017-05-24T13:11:32.629Z,1013.85
2017-05-24T13:12:45.186Z,1013.84
2017-05-24T13:13:57.739Z,1013.81
2017-05-24T13:15:10.287Z,1013.79
2017-05-24T13:16:22.523Z,1013.71
2017-05-24T13:17:35.055Z,1013.75
2017-05-24T13:18:47.619Z,1013.76
2017-05-24T13:19:59.615Z,1013.68
2017-05-24T13:21:11.861Z,1013.63
2017-05-24T13:22:24.107Z,1013.56
2017-05-24T13:23:36.646Z,1013.48
2017-05-24T13:24:49.220Z,1013.47
2017-05-24T13:26:01.474Z,1013.45
2017-05-24T13:27:13.711Z,1013.58
2017-05-24T13:28:25.969Z,1013.74
2017-05-24T13:29:38.528Z,1013.74
2017-05-24T13:30:51.060Z,1013.78
2017-05-24T13:32:03.320Z,1013.74
2017-05-24T13:33:15.021Z,1013.74
2017-05-24T13:34:27.270Z,1013.73
2017-05-24T13:35:39.814Z,1013.68
2017-05-24T13:36:52.358Z,1013.69
2017-05-24T13:38:04.895Z,1013.66
2017-05-24T13:39:17.429Z,1013.73
2017-05-24T13:40:29.372Z,1013.68
2017-05-24T13:41:41.610Z,1013.51
2017-05-24T13:42:53.841Z,1013.6
2017-05-24T13:44:05.508Z,1013.64
2017-05-24T13:45:17.458Z,1013.64
2017-05-24T13:46:29.680Z,1013.67
2017-05-24T13:47:42.226Z,1013.66
2017-05-24T13:48:54.770Z,1013.54
2017-05-24T13:50:07.056Z,1013.46
2017-05-24T13:51:19.604Z,1013.39
2017-05-24T13:52:31.251Z,1013.34
2017-05-24T13:53:43.822Z,1013.29
2017-05-24T13:54:56.372Z,1013.3
2017-05-24T13:56:08.617Z,1013.28
2017-05-24T13:57:20.844Z,1013.34
2017-05-24T13:58:33.385Z,1013.43
2017-05-24T13:59:45.934Z,1013.6
2017-05-24T14:00:58.182Z,1013.63
2017-05-24T14:02:10.746Z,1013.66
2017-05-24T14:03:22.995Z,1013.62
2017-05-24T14:04:34.966Z,1013.65
2017-05-24T14:05:47.503Z,1013.63
2017-05-24T14:07:00.061Z,1013.62
2017-05-24T14:08:12.595Z,1013.56
2017-05-24T14:09:24.808Z,1013.54
2017-05-24T14:10:37.365Z,1013.55
2017-05-24T14:11:49.985Z,1013.61
2017-05-24T14:13:02.235Z,1013.62
2017-05-24T14:14:14.784Z,1013.66
2017-05-24T14:15:26.759Z,1013.9
2017-05-24T14:16:39.003Z,1013.63
2017-05-24T14:17:51.547Z,1013.66
2017-05-24T14:19:03.799Z,1013.74
2017-05-24T14:20:16.053Z,1013.67
2017-05-24T14:21:28.661Z,1013.69
2017-05-24T14:22:41.187Z,1013.71
2017-05-24T14:23:53.452Z,1013.77
2017-05-24T14:25:05.400Z,1013.75
2017-05-24T14:26:17.358Z,1013.6
2017-05-24T14:27:29.928Z,1013.58
2017-05-24T14:28:42.157Z,1013.59
2017-05-24T14:29:54.106Z,1013.49
2017-05-24T14:31:06.670Z,1013.43
2017-05-24T14:32:18.624Z,1013.46
2017-05-24T14:33:31.168Z,1013.4
2017-05-24T14:34:43.715Z,1013.44
2017-05-24T14:35:56.261Z,1013.43
2017-05-24T14:37:08.791Z,1013.42
2017-05-24T14:38:20.975Z,1013.41